ヨハネスブルグ の空港の天気 - METARとTAF

ヨハネスブルグ/O.R.タンボ国際空港 ( FAOR / JNB ) - 南アフリカ ヨハネスブルグ
飛行場実況気象(Metar)
観測時間01/21 20:00 SAST (01/21 18:00 UTC)
風向・風速北東 4m/s
視程10km以上
天気現象
少しの雲 雲底高度 1370m
気温21℃
湿度56%
気圧1020hPa
METARFAOR 211800Z 05008KT 9999 FEW045TCU 21/12 Q1020 NOSIG
過去の天気等 Google飛行場航空写真 Wunderground天気予報

過去48時間のMETAR

飛行場予報(TAF)
発表時間: 1/21 18:00 SAST (1/21 16:00 UTC)
予報対象時間: 21日20時 SAST ~ 23日2時 SAST
風向・風速北北東 5m/s
視程10km以上
全天の4割程度の雲 雲底高度 1,220m
少しの塔状積雲 雲底高度 1,370m
21日20時 SAST ~ 21日24時 SAST に 確率 30% で一時的に
天気現象弱い雷雨
少しの積乱雲 雲底高度 1,220m
22日5時 SAST ~ 22日7時 SAST に徐々に
全天の8割程度の雲 雲底高度 300m
22日5時 SAST ~ 22日8時 SAST に 確率 30% で一時的に
視程5,000m
天気現象もや
全天の8割程度の雲 雲底高度 150m
22日9時 SAST ~ 22日11時 SAST に徐々に
風向・風速北北西 6m/s
全天の4割程度の雲 雲底高度 1,070m
22日14時 SAST ~ 23日2時 SAST に 確率 30% で一時的に
天気現象弱い雷雨
少しの積乱雲 雲底高度 1,220m
TAF FAOR 211600Z 2118/2224 03010KT 9999 SCT040 FEW045TCU
PROB30 TEMPO 2118/2122 -TSRA FEW040CB
BECMG 2203/2205 BKN010
PROB30 TEMPO 2203/2206 5000 BR BKN005
BECMG 2207/2209 34012KT SCT035
PROB30 TEMPO 2212/2224 -TSRA FEW040CB TX27/2214Z TN15/2204Z